Carnarvon, Australia
Current Conditions -  °F | °C
As of 4:00 PM on Wednesday 26 Nov 2014 (Local Time) from YCAR Reporting Station
Clear Clear  
Wind Chill: 79°   Ceiling: Unl
Heat Index: 81°   Visibility: NA
Dew Point: 64°   Wind: 17mph
Humidity: 61%   Direction: 280°W
Pressure: 29.74"   Gusts: NA
Location:  24.88°S, 113.66°E
Report Text: YCAR 260800Z AUTO 28015KT //// // NCD 26/18 Q1007
Loading
Personal Weather Stations






























Interactive Weather Map New forecast layout! Learn more

10-Day Weather Forecast

Advertisements
Track Severe Weather on mobile